Time;durP1;ratioP1;P1;durP2;ratioP2;P2;SDS_P1;SDS_P2;PMS_P1;PMS_P2;Temp;Humidity;BMP_temperature;BMP_pressure;BME280_temperature;BME280_humidity;BME280_pressure;Samples;Min_cycle;Max_cycle;Signal;HPM_P1;HPM_P2
2023/09/04 09:56:04;;;;;;;11.90;5.10;;;;;;;19.10;72.44;100084.34;104163;1286;648633;-89
2023/09/04 09:58:34;;;;;;;11.10;4.90;;;;;;;19.16;71.99;100081.85;101812;1264;5037204;-90
2023/09/04 10:01:04;;;;;;;11.70;4.40;;;;;;;19.15;72.00;100085.54;105903;1271;94311;-90
2023/09/04 10:03:43;;;;;;;10.30;4.60;;;;;;;19.15;71.88;100084.30;105606;1271;107329;-91
2023/09/04 10:10:02;;;;;;;10.20;4.90;;;;;;;19.11;71.24;100081.41;105683;1270;106821;-90
2023/09/04 10:13:17;;;;;;;9.30;4.40;;;;;;;19.11;71.59;100077.08;105538;1271;94466;-90
2023/09/04 10:15:50;;;;;;;11.70;5.00;;;;;;;19.13;71.73;100073.71;106154;1256;94338;-90
2023/09/04 10:18:33;;;;;;;8.50;4.40;;;;;;;19.14;71.82;100072.35;106092;1260;105908;-90
2023/09/04 10:21:09;;;;;;;11.90;5.10;;;;;;;19.15;71.57;100072.55;106032;1261;94882;-89
2023/09/04 10:27:43;;;;;;;;;;;;;;;;;;;;;
2023/09/04 10:31:18;;;;;;;10.20;4.70;;;;;;;19.20;71.23;100065.48;106292;1258;95373;-90
2023/09/04 10:34:05;;;;;;;8.60;4.40;;;;;;;19.24;70.56;100061.20;106104;1259;108577;-89
2023/09/04 10:36:36;;;;;;;9.50;4.40;;;;;;;19.30;71.36;100063.48;106428;1257;95243;-91
2023/09/04 10:39:08;;;;;;;9.00;4.30;;;;;;;19.34;70.46;100062.77;106112;1253;107077;-92
2023/09/04 10:41:37;;;;;;;8.30;4.30;;;;;;;19.36;70.42;100068.31;106629;1261;95254;-90
2023/09/04 10:44:08;;;;;;;7.40;4.00;;;;;;;19.40;70.25;100065.80;107188;1253;95243;-90
2023/09/04 10:46:40;;;;;;;9.50;3.80;;;;;;;19.44;70.52;100070.23;107436;1253;108641;-90
2023/09/04 10:49:51;;;;;;;10.90;4.20;;;;;;;19.48;70.50;100069.88;107071;1254;95188;-91
2023/09/04 10:52:20;;;;;;;8.90;4.80;;;;;;;19.54;69.70;100066.44;106697;1261;108046;-91
2023/09/04 10:59:25;;;;;;;8.20;4.00;;;;;;;19.67;70.58;100064.86;106119;1259;95237;-92
2023/09/04 11:01:55;;;;;;;7.60;4.10;;;;;;;19.72;70.08;100057.58;106235;1257;108567;-90
2023/09/04 11:04:43;;;;;;;12.20;4.70;;;;;;;19.77;69.79;100054.69;106069;1259;95396;-92
2023/09/04 11:11:31;;;;;;;7.20;3.80;;;;;;;19.84;68.90;100047.41;106182;1259;95228;-89
2023/09/04 11:14:09;;;;;;;8.20;3.80;;;;;;;19.82;68.69;100046.04;106147;1259;94317;-91
2023/09/04 11:17:15;;;;;;;8.40;4.00;;;;;;;19.84;68.76;100048.33;106160;1254;109020;-90
2023/09/04 11:19:45;;;;;;;8.20;3.60;;;;;;;19.88;69.56;100050.49;106267;1258;95254;-90
2023/09/04 11:22:21;;;;;;;7.50;3.30;;;;;;;19.91;69.61;100048.20;106141;1261;107697;-88
2023/09/04 11:24:53;;;;;;;8.90;3.80;;;;;;;19.95;68.20;100047.46;106148;1259;95254;-89
2023/09/04 11:27:23;;;;;;;7.60;3.60;;;;;;;19.97;68.05;100048.00;106089;1254;95070;-90
2023/09/04 11:29:51;;;;;;;7.80;4.00;;;;;;;19.96;67.44;100051.16;106066;1261;108504;-90
2023/09/04 11:32:20;;;;;;;6.40;3.00;;;;;;;19.97;68.61;100054.97;106131;1261;96227;-90
2023/09/04 11:34:50;;;;;;;7.30;3.70;;;;;;;19.99;68.65;100058.08;106159;1256;107378;-91
2023/09/04 11:37:19;;;;;;;7.20;3.90;;;;;;;20.03;68.64;100056.23;106191;1261;95365;-90
2023/09/04 11:40:02;;;;;;;6.60;3.50;;;;;;;20.12;68.80;100059.73;106097;1260;95197;-90
2023/09/04 11:42:33;;;;;;;6.90;3.10;;;;;;;20.24;67.71;100053.83;106145;1259;108589;-90
2023/09/04 11:45:06;;;;;;;10.60;4.20;;;;;;;20.32;66.99;100050.36;106131;1262;95108;-90
2023/09/04 11:47:36;;;;;;;7.00;3.50;;;;;;;20.40;67.55;100054.52;106114;1258;107545;-90
2023/09/04 11:50:27;;;;;;;7.30;3.30;;;;;;;20.48;68.22;100052.96;106162;1261;95302;-91
2023/09/04 11:52:56;;;;;;;8.70;3.40;;;;;;;20.54;66.86;100057.48;106058;1262;95296;-89
2023/09/04 11:55:29;;;;;;;6.40;3.40;;;;;;;20.56;67.52;100061.02;106134;1258;108571;-92
2023/09/04 11:57:57;;;;;;;5.80;3.20;;;;;;;20.62;67.83;100062.02;106333;1260;95120;-92
2023/09/04 12:00:30;;;;;;;4.50;2.90;;;;;;;20.71;67.73;100065.16;106152;1255;107095;-93
2023/09/04 12:02:58;;;;;;;7.40;3.20;;;;;;;20.78;67.58;100074.68;106190;1259;95174;-90
2023/09/04 12:05:27;;;;;;;6.00;3.50;;;;;;;20.85;65.80;100069.23;106155;1259;96250;-89
2023/09/04 12:07:55;;;;;;;4.70;3.00;;;;;;;20.86;66.98;100065.50;106325;1260;108644;-89
2023/09/04 12:10:26;;;;;;;9.50;3.50;;;;;;;20.86;66.69;100062.39;106288;1260;95199;-90
2023/09/04 12:12:55;;;;;;;6.20;2.90;;;;;;;20.83;66.92;100064.87;106178;1254;107787;-90
2023/09/04 12:15:33;;;;;;;5.60;3.20;;;;;;;20.79;64.89;100055.15;106078;1257;95375;-90
2023/09/04 12:18:12;;;;;;;8.00;3.50;;;;;;;20.76;64.85;100054.77;106173;1260;95225;-90
2023/09/04 12:20:48;;;;;;;6.10;3.30;;;;;;;20.75;65.86;100057.50;106056;1259;108631;-89
2023/09/04 12:23:58;;;;;;;6.50;3.20;;;;;;;20.69;66.00;100054.66;106240;1259;95560;-89
2023/09/04 12:26:29;;;;;;;9.70;3.50;;;;;;;20.66;65.95;100059.63;106089;1254;107770;-89
2023/09/04 12:29:02;;;;;;;4.60;3.10;;;;;;;20.69;66.14;100056.35;106069;1269;95259;-89
2023/09/04 12:31:31;;;;;;;;;;;;;;;20.74;66.18;100052.92;106057;1260;95203;-89
2023/09/04 12:34:05;;;;;;;7.40;3.50;;;;;;;20.76;66.01;100041.56;106004;1257;109018;-90
2023/09/04 12:36:39;;;;;;;10.80;3.30;;;;;;;20.80;65.24;100038.47;106188;1261;95291;-90
2023/09/04 12:39:07;;;;;;;4.70;2.90;;;;;;;20.83;65.04;100036.91;106106;1256;107120;-90
2023/09/04 12:41:37;;;;;;;5.10;2.90;;;;;;;20.87;64.53;100034.21;106012;1261;95521;-89
2023/09/04 12:44:06;;;;;;;7.30;3.20;;;;;;;20.92;63.56;100034.02;106080;1261;95265;-89
2023/09/04 12:46:39;;;;;;;7.60;3.10;;;;;;;20.95;62.93;100029.09;106015;1260;109145;-93
2023/09/04 12:49:08;;;;;;;7.10;3.00;;;;;;;20.99;64.35;100029.99;106126;1261;95264;-92
2023/09/04 12:51:37;;;;;;;5.40;3.00;;;;;;;21.04;64.12;100027.60;106257;1257;107789;-88
2023/09/04 12:54:06;;;;;;;8.20;3.00;;;;;;;21.06;64.29;100026.49;106148;1260;95369;-89
2023/09/04 12:56:35;;;;;;;5.40;3.20;;;;;;;21.06;64.19;100026.13;106366;1257;95228;-90
2023/09/04 12:59:04;;;;;;;5.60;2.90;;;;;;;21.06;64.05;100021.36;106926;1261;108854;-90
2023/09/04 13:01:32;;;;;;;6.30;3.10;;;;;;;21.05;64.15;100020.51;106913;1260;96160;-89
2023/09/04 13:04:03;;;;;;;4.80;2.90;;;;;;;21.06;64.07;100017.85;107026;1257;108065;-90
2023/09/04 13:06:50;;;;;;;4.40;2.60;;;;;;;21.05;63.92;100014.73;106667;1262;95226;-91
2023/09/04 13:09:20;;;;;;;6.30;2.80;;;;;;;21.05;64.25;100019.92;106517;1262;95289;-90
2023/09/04 13:11:49;;;;;;;7.40;3.20;;;;;;;21.08;63.89;100023.64;106286;1262;108118;-90
2023/09/04 13:14:18;;;;;;;6.80;3.20;;;;;;;21.11;63.80;100021.64;106084;1265;95289;-88
2023/09/04 13:16:46;;;;;;;5.80;3.40;;;;;;;21.17;63.61;100017.36;106294;1273;107594;-90
2023/09/04 13:19:17;;;;;;;5.40;2.90;;;;;;;21.18;63.68;100021.39;106038;1263;96170;-92
2023/09/04 13:21:45;;;;;;;6.00;3.30;;;;;;;21.14;63.45;100018.85;106066;1262;95270;-91
2023/09/04 13:24:14;;;;;;;6.70;3.10;;;;;;;21.11;63.51;100016.51;106061;1263;108007;-91
2023/09/04 13:26:43;;;;;;;7.70;3.60;;;;;;;21.08;63.39;100019.68;106144;1259;95181;-90
2023/09/04 13:29:12;;;;;;;5.70;3.40;;;;;;;21.05;63.00;100021.92;106332;1256;108237;-90
2023/09/04 13:31:41;;;;;;;6.40;3.30;;;;;;;21.05;63.02;100015.83;105956;1258;95362;-91
2023/09/04 13:34:11;;;;;;;4.70;3.10;;;;;;;21.05;62.76;100016.20;105960;1271;95204;-90
2023/09/04 13:36:39;;;;;;;6.00;3.10;;;;;;;21.05;62.79;100017.02;105897;1264;108589;-91
2023/09/04 13:39:07;;;;;;;6.00;3.30;;;;;;;21.07;62.70;100016.70;106286;1256;95275;-91
2023/09/04 13:41:35;;;;;;;7.30;3.10;;;;;;;21.08;63.01;100011.67;106171;1261;108306;-90
2023/09/04 13:44:05;;;;;;;7.70;2.90;;;;;;;21.10;62.80;100012.06;106331;1262;95350;-90
2023/09/04 13:46:35;;;;;;;6.40;3.40;;;;;;;21.13;62.64;100006.67;106249;1260;95187;-90
2023/09/04 13:49:04;;;;;;;5.30;3.00;;;;;;;21.15;62.24;100004.53;106119;1263;108473;-89
2023/09/04 13:51:35;;;;;;;5.30;2.90;;;;;;;21.17;62.26;100008.13;106093;1257;95248;-92
2023/09/04 13:54:04;;;;;;;6.10;3.20;;;;;;;21.19;61.61;100007.36;106182;1263;106236;-92
2023/09/04 13:56:34;;;;;;;7.80;3.20;;;;;;;21.21;62.05;100009.80;105855;1260;95254;-91
2023/09/04 13:59:02;;;;;;;7.10;3.10;;;;;;;21.21;61.94;100005.35;106097;1261;95275;-90
2023/09/04 14:01:35;;;;;;;8.60;3.50;;;;;;;21.19;61.98;100006.08;105931;1263;108270;-90
2023/09/04 14:04:04;;;;;;;4.20;2.80;;;;;;;21.12;61.87;100007.14;106045;1263;95426;-91
2023/09/04 14:06:33;;;;;;;6.90;3.10;;;;;;;21.05;61.74;100002.97;105858;1262;107931;-91
2023/09/04 14:09:04;;;;;;;7.20;3.10;;;;;;;21.01;61.92;100003.94;105838;1257;95265;-90
2023/09/04 14:11:33;;;;;;;6.60;3.50;;;;;;;20.98;61.57;100007.66;105717;1261;95574;-90
2023/09/04 14:14:01;;;;;;;4.90;3.10;;;;;;;20.99;61.85;100005.23;105877;1263;108490;-90
2023/09/04 14:16:33;;;;;;;4.80;2.90;;;;;;;21.04;61.87;100006.93;105845;1265;95232;-90
2023/09/04 14:19:01;;;;;;;7.30;3.00;;;;;;;21.09;61.66;100004.34;106096;1260;107661;-91
2023/09/04 14:21:33;;;;;;;7.50;3.10;;;;;;;21.16;61.56;100009.16;105953;1260;96680;-90
2023/09/04 14:24:03;;;;;;;8.20;3.20;;;;;;;21.19;60.95;100013.52;105905;1257;96540;-90
2023/09/04 14:26:35;;;;;;;4.00;2.80;;;;;;;21.19;61.15;100013.83;105946;1261;109792;-89
2023/09/04 14:29:04;;;;;;;7.80;2.90;;;;;;;21.21;61.25;100011.27;105987;1263;98023;-91
2023/09/04 14:31:32;;;;;;;4.60;2.80;;;;;;;21.23;61.30;100011.27;105946;1260;107207;-90
2023/09/04 14:34:01;;;;;;;6.40;3.10;;;;;;;21.23;61.02;100013.08;105977;1263;96649;-89
2023/09/04 14:36:32;;;;;;;4.60;2.70;;;;;;;21.23;60.67;100006.77;105765;1257;97014;-91
2023/09/04 14:39:01;;;;;;;7.20;2.90;;;;;;;21.23;60.89;100006.02;106169;1260;109885;-89
2023/09/04 14:41:30;;;;;;;4.60;3.00;;;;;;;21.24;60.94;100009.11;106187;1257;97888;-90
2023/09/04 14:44:00;;;;;;;6.70;3.10;;;;;;;21.27;61.07;100006.73;105969;1256;107775;-90
2023/09/04 14:46:30;;;;;;;4.90;2.70;;;;;;;21.27;60.95;100009.61;106170;1258;97887;-91
2023/09/04 14:49:00;;;;;;;7.40;2.80;;;;;;;21.25;60.62;100009.73;106085;1263;96539;-91
2023/09/04 14:51:29;;;;;;;6.00;3.20;;;;;;;21.26;60.53;100010.08;105955;1260;110001;-90
2023/09/04 14:53:58;;;;;;;5.20;3.00;;;;;;;21.26;60.22;100007.70;106057;1257;96653;-91
2023/09/04 14:56:27;;;;;;;5.00;3.00;;;;;;;21.27;60.19;100008.11;105900;1263;107158;-91
2023/09/04 14:58:58;;;;;;;4.10;2.50;;;;;;;21.29;60.23;100010.34;105820;1264;96578;-91
2023/09/04 15:01:27;;;;;;;4.80;2.70;;;;;;;21.28;60.10;100011.11;105934;1257;96402;-91
2023/09/04 15:03:58;;;;;;;5.70;3.00;;;;;;;21.28;59.94;100010.77;105832;1257;110322;-91
2023/09/04 15:06:28;;;;;;;4.90;2.70;;;;;;;21.28;60.00;100013.48;105953;1257;96598;-90
2023/09/04 15:08:56;;;;;;;5.80;3.10;;;;;;;21.26;59.97;100012.19;106629;1257;107610;-90
2023/09/04 15:11:29;;;;;;;7.10;3.10;;;;;;;21.25;59.97;100015.21;106819;1263;96502;-90
2023/09/04 15:13:58;;;;;;;8.80;3.30;;;;;;;21.25;59.62;100010.17;106451;1257;97981;-92
2023/09/04 15:16:26;;;;;;;6.40;3.20;;;;;;;21.23;59.93;100010.73;106767;1257;109330;-90
2023/09/04 15:18:55;;;;;;;5.00;3.00;;;;;;;21.23;59.73;100013.10;106504;1261;96633;-90
2023/09/04 15:21:24;;;;;;;5.50;3.30;;;;;;;21.24;59.79;100016.52;106216;1258;108050;-89
2023/09/04 15:23:59;;;;;;;7.80;3.40;;;;;;;21.25;59.46;100015.75;106094;1258;96598;-91
2023/09/04 15:26:30;;;;;;;5.20;3.10;;;;;;;21.26;59.60;100018.91;106121;1264;96611;-93
2023/09/04 15:29:01;;;;;;;7.00;3.70;;;;;;;21.26;59.69;100018.90;106073;1257;109925;-91
2023/09/04 15:31:34;;;;;;;6.40;3.00;;;;;;;21.26;59.39;100018.71;105853;1257;96538;-90
2023/09/04 15:34:06;;;;;;;5.30;3.20;;;;;;;21.26;59.35;100017.11;106004;1255;107457;-91
2023/09/04 15:36:37;;;;;;;;;;;;;;;21.24;59.54;100019.27;106249;1258;97993;-89
2023/09/04 15:39:08;;;;;;;7.40;3.20;;;;;;;21.18;59.35;100020.24;105696;1259;96629;-90
2023/09/04 15:41:36;;;;;;;7.60;3.00;;;;;;;21.15;58.97;100023.13;105704;1261;109863;-91
2023/09/04 15:44:05;;;;;;;6.30;3.20;;;;;;;21.10;59.23;100024.27;105808;1263;96438;-90
2023/09/04 15:46:35;;;;;;;7.60;3.30;;;;;;;21.08;58.95;100023.78;105693;1263;107703;-89
2023/09/04 15:49:05;;;;;;;8.20;3.90;;;;;;;21.04;59.24;100024.58;105938;1259;96600;-91
2023/09/04 15:51:35;;;;;;;10.30;3.70;;;;;;;21.01;59.06;100026.85;105750;1259;96616;-90
2023/09/04 15:54:06;;;;;;;8.30;4.30;;;;;;;21.00;59.07;100027.53;105733;1263;109970;-90
2023/09/04 15:56:34;;;;;;;11.40;4.40;;;;;;;20.98;59.18;100028.56;105898;1263;96499;-88
2023/09/04 15:59:03;;;;;;;9.20;3.50;;;;;;;20.96;58.91;100032.75;105756;1263;107666;-90
2023/09/04 16:01:31;;;;;;;9.00;4.20;;;;;;;20.94;59.00;100031.88;105687;1262;96559;-90
2023/09/04 16:04:00;;;;;;;6.10;3.30;;;;;;;20.91;58.96;100037.56;105682;1264;96682;-89
2023/09/04 16:06:28;;;;;;;5.90;3.20;;;;;;;20.89;59.00;100039.03;105709;1263;110098;-90
2023/09/04 16:08:59;;;;;;;5.00;2.80;;;;;;;20.88;58.99;100040.74;105841;1265;96742;-90
2023/09/04 16:11:27;;;;;;;8.40;3.20;;;;;;;20.85;58.90;100043.62;105765;1261;107592;-90
2023/09/04 16:13:55;;;;;;;7.50;3.30;;;;;;;20.80;59.05;100044.56;105775;1263;96596;-90
2023/09/04 16:16:24;;;;;;;5.10;3.00;;;;;;;20.76;58.70;100049.46;105783;1265;98055;-90
2023/09/04 16:18:52;;;;;;;9.20;3.80;;;;;;;20.70;58.75;100056.59;105655;1259;109831;-90
2023/09/04 16:21:20;;;;;;;8.00;3.40;;;;;;;20.65;58.80;100060.09;105639;1262;96629;-90
2023/09/04 16:23:49;;;;;;;8.00;3.30;;;;;;;20.60;58.75;100057.27;105575;1262;107321;-90
2023/09/04 16:26:17;;;;;;;9.90;3.20;;;;;;;20.53;58.79;100055.69;105531;1262;96568;-90
2023/09/04 16:28:47;;;;;;;8.00;3.70;;;;;;;20.47;58.59;100056.46;105715;1259;96742;-90
2023/09/04 16:31:16;;;;;;;7.90;3.10;;;;;;;20.40;58.64;100055.55;105654;1262;109831;-90
2023/09/04 16:33:47;;;;;;;6.70;3.30;;;;;;;20.34;58.81;100051.28;105653;1262;97943;-89
2023/09/04 16:36:17;;;;;;;8.70;3.70;;;;;;;20.28;58.88;100054.25;105596;1263;105487;-90
2023/09/04 16:38:45;;;;;;;5.20;2.90;;;;;;;20.20;59.17;100055.10;105508;1264;97294;-89
2023/09/04 16:41:13;;;;;;;7.40;3.60;;;;;;;20.13;58.95;100056.80;105978;1258;96596;-90
2023/09/04 16:43:42;;;;;;;6.90;3.50;;;;;;;20.06;58.99;100054.73;105826;1264;109509;-90
2023/09/04 16:46:10;;;;;;;7.80;3.40;;;;;;;20.01;58.89;100059.54;105949;1263;96662;-91
2023/09/04 16:48:42;;;;;;;8.70;4.10;;;;;;;19.94;58.97;100062.91;105524;1263;107582;-90
2023/09/04 16:51:10;;;;;;;10.40;4.30;;;;;;;19.89;59.10;100064.21;105534;1263;96667;-89
2023/09/04 16:53:41;;;;;;;9.40;4.10;;;;;;;19.82;59.00;100063.65;105607;1262;96627;-90
2023/09/04 16:56:09;;;;;;;8.80;3.80;;;;;;;19.74;59.10;100059.94;105739;1261;109879;-89
2023/09/04 16:58:38;;;;;;;7.20;3.70;;;;;;;19.66;59.17;100059.92;105862;1263;96569;-90
2023/09/04 17:01:06;;;;;;;7.00;3.50;;;;;;;19.57;59.27;100057.84;105988;1265;107837;-89
2023/09/04 17:03:35;;;;;;;6.60;3.70;;;;;;;19.49;59.32;100061.34;106082;1262;96521;-90
2023/09/04 17:06:04;;;;;;;9.30;4.20;;;;;;;19.40;59.37;100061.32;105961;1265;96764;-90
2023/09/04 17:08:32;;;;;;;7.10;3.50;;;;;;;19.32;59.50;100063.29;105768;1260;110055;-90
2023/09/04 17:11:02;;;;;;;9.90;4.00;;;;;;;19.22;59.49;100069.42;106011;1264;96614;-90
2023/09/04 17:13:34;;;;;;;7.30;3.80;;;;;;;19.12;59.57;100073.81;105868;1265;107248;-90
2023/09/04 17:16:03;;;;;;;10.10;3.90;;;;;;;19.02;59.66;100074.84;105960;1264;96638;-91
2023/09/04 17:18:32;;;;;;;8.70;4.10;;;;;;;18.93;59.70;100073.28;106036;1265;96423;-90
2023/09/04 17:21:00;;;;;;;11.10;4.20;;;;;;;18.85;59.83;100073.64;106407;1257;108250;-91
2023/09/04 17:23:28;;;;;;;11.60;4.50;;;;;;;18.75;59.81;100076.38;106357;1265;96598;-90
2023/09/04 17:26:03;;;;;;;10.30;4.00;;;;;;;18.67;59.92;100086.64;106323;1263;107804;-91
2023/09/04 17:28:34;;;;;;;10.50;4.20;;;;;;;18.60;59.97;100091.41;106632;1259;97587;-91
2023/09/04 23:23:58;;;;;;;;;;;;;;;;;;;;;
